sensor_id;sensor_type;location;lat;lon;timestamp;pressure;altitude;pressure_sealevel;temperature;humidity
71567;BME280;59403;47.456;19.120;2023-08-01T00:00:16;99720.31;;;17.70;91.45
71567;BME280;59403;47.456;19.120;2023-08-01T00:02:43;99714.75;;;17.72;91.44
71567;BME280;59403;47.456;19.120;2023-08-01T00:05:10;99712.88;;;17.72;91.25
71567;BME280;59403;47.456;19.120;2023-08-01T00:07:39;99710.63;;;17.69;91.33
71567;BME280;59403;47.456;19.120;2023-08-01T00:10:06;99705.94;;;17.65;91.53
71567;BME280;59403;47.456;19.120;2023-08-01T00:12:33;99710.25;;;17.66;91.38
71567;BME280;59403;47.456;19.120;2023-08-01T00:15:00;99716.66;;;17.65;91.32
71567;BME280;59403;47.456;19.120;2023-08-01T00:17:27;99713.44;;;17.56;91.93
71567;BME280;59403;47.456;19.120;2023-08-01T00:19:54;99711.16;;;17.60;91.69
71567;BME280;59403;47.456;19.120;2023-08-01T00:22:21;99707.03;;;17.57;92.07
71567;BME280;59403;47.456;19.120;2023-08-01T00:24:50;99716.34;;;17.55;92.17
71567;BME280;59403;47.456;19.120;2023-08-01T00:27:17;99706.44;;;17.55;92.05
71567;BME280;59403;47.456;19.120;2023-08-01T00:29:45;99705.81;;;17.53;92.25
71567;BME280;59403;47.456;19.120;2023-08-01T00:32:12;99706.25;;;17.50;92.46
71567;BME280;59403;47.456;19.120;2023-08-01T00:34:39;99711.41;;;17.52;92.38
71567;BME280;59403;47.456;19.120;2023-08-01T00:37:06;99716.75;;;17.52;92.39
71567;BME280;59403;47.456;19.120;2023-08-01T00:39:32;99715.94;;;17.45;92.51
71567;BME280;59403;47.456;19.120;2023-08-01T00:42:01;99715.16;;;17.44;92.55
71567;BME280;59403;47.456;19.120;2023-08-01T00:44:28;99715.19;;;17.38;92.84
71567;BME280;59403;47.456;19.120;2023-08-01T00:46:55;99713.16;;;17.33;93.02
71567;BME280;59403;47.456;19.120;2023-08-01T00:49:22;99704.31;;;17.33;93.07
71567;BME280;59403;47.456;19.120;2023-08-01T00:51:49;99702.47;;;17.33;93.12
71567;BME280;59403;47.456;19.120;2023-08-01T00:54:16;99699.78;;;17.33;92.77
71567;BME280;59403;47.456;19.120;2023-08-01T00:56:43;99692.59;;;17.27;93.10
71567;BME280;59403;47.456;19.120;2023-08-01T00:59:11;99684.38;;;17.29;92.90
71567;BME280;59403;47.456;19.120;2023-08-01T01:04:34;99685.00;;;17.24;96.83
71567;BME280;59403;47.456;19.120;2023-08-01T01:07:03;99683.16;;;17.25;95.28
71567;BME280;59403;47.456;19.120;2023-08-01T01:09:30;99679.44;;;17.26;94.53
71567;BME280;59403;47.456;19.120;2023-08-01T01:11:57;99674.09;;;17.26;93.78
71567;BME280;59403;47.456;19.120;2023-08-01T01:14:26;99657.87;;;17.21;93.71
71567;BME280;59403;47.456;19.120;2023-08-01T01:16:53;99656.19;;;17.26;92.95
71567;BME280;59403;47.456;19.120;2023-08-01T01:19:20;99657.44;;;17.24;92.62
71567;BME280;59403;47.456;19.120;2023-08-01T01:22:20;99659.72;;;17.20;92.76
71567;BME280;59403;47.456;19.120;2023-08-01T01:24:48;99662.22;;;17.15;92.98
71567;BME280;59403;47.456;19.120;2023-08-01T01:27:16;99664.34;;;17.07;93.26
71567;BME280;59403;47.456;19.120;2023-08-01T01:29:44;99660.91;;;16.99;93.78
71567;BME280;59403;47.456;19.120;2023-08-01T01:32:12;99653.25;;;17.03;93.76
71567;BME280;59403;47.456;19.120;2023-08-01T01:34:40;99655.53;;;16.99;93.92
71567;BME280;59403;47.456;19.120;2023-08-01T01:37:07;99654.94;;;16.97;93.99
71567;BME280;59403;47.456;19.120;2023-08-01T01:39:35;99651.03;;;17.00;93.76
71567;BME280;59403;47.456;19.120;2023-08-01T01:42:02;99654.75;;;16.92;94.25
71567;BME280;59403;47.456;19.120;2023-08-01T01:44:29;99649.25;;;16.87;95.03
71567;BME280;59403;47.456;19.120;2023-08-01T01:46:56;99655.00;;;16.91;94.57
71567;BME280;59403;47.456;19.120;2023-08-01T01:49:23;99649.00;;;16.95;94.13
71567;BME280;59403;47.456;19.120;2023-08-01T01:51:51;99646.34;;;16.95;94.13
71567;BME280;59403;47.456;19.120;2023-08-01T01:54:18;99642.44;;;16.91;94.08
71567;BME280;59403;47.456;19.120;2023-08-01T01:56:47;99648.06;;;16.83;94.49
71567;BME280;59403;47.456;19.120;2023-08-01T01:59:14;99647.28;;;16.76;94.82
71567;BME280;59403;47.456;19.120;2023-08-01T02:01:41;99644.22;;;16.73;96.30
71567;BME280;59403;47.456;19.120;2023-08-01T02:04:07;99641.19;;;16.56;99.62
71567;BME280;59403;47.456;19.120;2023-08-01T02:06:34;99636.47;;;16.58;99.80
71567;BME280;59403;47.456;19.120;2023-08-01T02:09:02;99631.56;;;16.55;100.00
71567;BME280;59403;47.456;19.120;2023-08-01T02:11:30;99631.12;;;16.58;99.43
71567;BME280;59403;47.456;19.120;2023-08-01T02:13:58;99626.00;;;16.57;99.09
71567;BME280;59403;47.456;19.120;2023-08-01T02:16:27;99633.78;;;16.58;98.80
71567;BME280;59403;47.456;19.120;2023-08-01T02:18:54;99622.72;;;16.55;98.66
71567;BME280;59403;47.456;19.120;2023-08-01T02:21:20;99620.66;;;16.57;98.37
71567;BME280;59403;47.456;19.120;2023-08-01T02:23:47;99623.38;;;16.37;100.00
71567;BME280;59403;47.456;19.120;2023-08-01T02:26:14;99627.72;;;16.38;100.00
71567;BME280;59403;47.456;19.120;2023-08-01T02:28:41;99628.69;;;16.44;100.00
71567;BME280;59403;47.456;19.120;2023-08-01T02:31:10;99631.16;;;16.45;100.00
71567;BME280;59403;47.456;19.120;2023-08-01T02:33:37;99628.28;;;16.40;100.00
71567;BME280;59403;47.456;19.120;2023-08-01T02:36:04;99621.72;;;16.43;100.00
71567;BME280;59403;47.456;19.120;2023-08-01T02:38:31;99625.22;;;16.50;99.85
71567;BME280;59403;47.456;19.120;2023-08-01T02:40:58;99615.75;;;16.47;99.54
71567;BME280;59403;47.456;19.120;2023-08-01T02:43:25;99619.25;;;16.48;98.99
71567;BME280;59403;47.456;19.120;2023-08-01T02:45:52;99620.47;;;16.45;98.98
71567;BME280;59403;47.456;19.120;2023-08-01T02:48:20;99613.91;;;16.41;99.16
71567;BME280;59403;47.456;19.120;2023-08-01T02:50:47;99613.91;;;16.41;99.04
71567;BME280;59403;47.456;19.120;2023-08-01T02:53:14;99609.19;;;16.43;99.35
71567;BME280;59403;47.456;19.120;2023-08-01T02:55:41;99605.09;;;16.34;99.33
71567;BME280;59403;47.456;19.120;2023-08-01T02:58:08;99611.69;;;16.38;99.20
71567;BME280;59403;47.456;19.120;2023-08-01T03:00:37;99610.84;;;16.38;99.33
71567;BME280;59403;47.456;19.120;2023-08-01T03:03:06;99607.38;;;16.31;99.27
71567;BME280;59403;47.456;19.120;2023-08-01T03:05:37;99610.00;;;16.37;99.30
71567;BME280;59403;47.456;19.120;2023-08-01T03:08:04;99617.25;;;16.30;99.52
71567;BME280;59403;47.456;19.120;2023-08-01T03:10:31;99614.78;;;16.29;99.64
71567;BME280;59403;47.456;19.120;2023-08-01T03:12:58;99613.16;;;16.28;99.48
71567;BME280;59403;47.456;19.120;2023-08-01T03:15:24;99612.94;;;16.29;99.31
71567;BME280;59403;47.456;19.120;2023-08-01T03:17:51;99615.00;;;16.27;99.10
71567;BME280;59403;47.456;19.120;2023-08-01T03:20:18;99615.84;;;16.28;98.95
71567;BME280;59403;47.456;19.120;2023-08-01T03:22:47;99611.50;;;16.27;98.81
71567;BME280;59403;47.456;19.120;2023-08-01T03:25:14;99613.37;;;16.20;99.47
71567;BME280;59403;47.456;19.120;2023-08-01T03:27:41;99611.31;;;16.22;99.13
71567;BME280;59403;47.456;19.120;2023-08-01T03:30:08;99607.19;;;16.26;98.86
71567;BME280;59403;47.456;19.120;2023-08-01T03:32:35;99613.16;;;16.21;99.31
71567;BME280;59403;47.456;19.120;2023-08-01T03:35:03;99608.84;;;16.27;98.90
71567;BME280;59403;47.456;19.120;2023-08-01T03:37:30;99609.69;;;16.21;99.25
71567;BME280;59403;47.456;19.120;2023-08-01T03:39:58;99597.97;;;16.22;99.05
71567;BME280;59403;47.456;19.120;2023-08-01T03:42:25;99597.13;;;16.21;99.59
71567;BME280;59403;47.456;19.120;2023-08-01T03:44:52;99594.69;;;16.26;99.42
71567;BME280;59403;47.456;19.120;2023-08-01T03:47:18;99597.13;;;16.28;99.48
71567;BME280;59403;47.456;19.120;2023-08-01T03:49:45;99603.66;;;16.32;98.95
71567;BME280;59403;47.456;19.120;2023-08-01T03:52:12;99597.09;;;16.34;99.00
71567;BME280;59403;47.456;19.120;2023-08-01T03:54:39;99602.78;;;16.44;98.51
71567;BME280;59403;47.456;19.120;2023-08-01T03:57:08;99596.63;;;16.44;98.05
71567;BME280;59403;47.456;19.120;2023-08-01T03:59:36;99595.59;;;16.51;97.38
71567;BME280;59403;47.456;19.120;2023-08-01T04:02:03;99596.19;;;16.53;97.17
71567;BME280;59403;47.456;19.120;2023-08-01T04:04:30;99589.19;;;16.52;97.25
71567;BME280;59403;47.456;19.120;2023-08-01T04:06:57;99595.59;;;16.51;97.61
71567;BME280;59403;47.456;19.120;2023-08-01T04:09:24;99597.22;;;16.52;97.83
71567;BME280;59403;47.456;19.120;2023-08-01T04:11:51;99600.66;;;16.59;97.45
71567;BME280;59403;47.456;19.120;2023-08-01T04:14:19;99599.81;;;16.65;96.86
71567;BME280;59403;47.456;19.120;2023-08-01T04:16:46;99596.72;;;16.68;96.89
71567;BME280;59403;47.456;19.120;2023-08-01T04:19:13;99588.44;;;16.76;95.94
71567;BME280;59403;47.456;19.120;2023-08-01T04:21:40;99592.53;;;16.79;95.71
71567;BME280;59403;47.456;19.120;2023-08-01T04:24:07;99593.97;;;16.81;96.33
71567;BME280;59403;47.456;19.120;2023-08-01T04:26:34;99590.03;;;16.84;96.38
71567;BME280;59403;47.456;19.120;2023-08-01T04:29:02;99582.22;;;16.82;97.27
71567;BME280;59403;47.456;19.120;2023-08-01T04:31:31;99590.19;;;16.89;96.88
71567;BME280;59403;47.456;19.120;2023-08-01T04:33:57;99596.53;;;16.94;96.30
71567;BME280;59403;47.456;19.120;2023-08-01T04:36:24;99594.19;;;17.04;95.80
71567;BME280;59403;47.456;19.120;2023-08-01T04:38:51;99584.69;;;17.09;95.54
71567;BME280;59403;47.456;19.120;2023-08-01T04:41:18;99588.34;;;17.14;95.50
71567;BME280;59403;47.456;19.120;2023-08-01T04:43:45;99592.03;;;17.20;95.27
71567;BME280;59403;47.456;19.120;2023-08-01T04:46:12;99591.41;;;17.18;95.65
71567;BME280;59403;47.456;19.120;2023-08-01T04:48:40;99590.53;;;17.24;95.30
71567;BME280;59403;47.456;19.120;2023-08-01T04:51:07;99593.16;;;17.30;95.04
71567;BME280;59403;47.456;19.120;2023-08-01T04:53:34;99582.84;;;17.34;95.39
71567;BME280;59403;47.456;19.120;2023-08-01T04:56:01;99587.91;;;17.42;95.08
71567;BME280;59403;47.456;19.120;2023-08-01T04:58:27;99580.34;;;17.57;94.37
71567;BME280;59403;47.456;19.120;2023-08-01T05:00:56;99586.03;;;17.67;94.08
71567;BME280;59403;47.456;19.120;2023-08-01T05:03:23;99579.91;;;17.78;93.59
71567;BME280;59403;47.456;19.120;2023-08-01T05:05:51;99581.03;;;17.88;93.30
71567;BME280;59403;47.456;19.120;2023-08-01T05:08:18;99580.16;;;17.94;93.13
71567;BME280;59403;47.456;19.120;2023-08-01T05:10:45;99580.97;;;17.95;93.00
71567;BME280;59403;47.456;19.120;2023-08-01T05:13:11;99579.34;;;17.94;93.05
71567;BME280;59403;47.456;19.120;2023-08-01T05:15:38;99574.66;;;17.89;94.29
71567;BME280;59403;47.456;19.120;2023-08-01T05:18:05;99577.72;;;17.93;93.78
71567;BME280;59403;47.456;19.120;2023-08-01T05:20:32;99571.06;;;17.95;94.13
71567;BME280;59403;47.456;19.120;2023-08-01T05:23:01;99575.41;;;17.96;94.10
71567;BME280;59403;47.456;19.120;2023-08-01T05:25:28;99572.50;;;17.98;94.36
71567;BME280;59403;47.456;19.120;2023-08-01T05:27:55;99575.53;;;18.01;94.03
71567;BME280;59403;47.456;19.120;2023-08-01T05:30:22;99565.75;;;18.07;93.57
71567;BME280;59403;47.456;19.120;2023-08-01T05:32:48;99556.69;;;18.08;93.23
71567;BME280;59403;47.456;19.120;2023-08-01T05:35:16;99568.53;;;18.19;93.46
71567;BME280;59403;47.456;19.120;2023-08-01T05:37:43;99572.03;;;18.19;95.61
71567;BME280;59403;47.456;19.120;2023-08-01T05:40:12;99577.88;;;18.46;93.50
71567;BME280;59403;47.456;19.120;2023-08-01T05:42:39;99579.19;;;18.55;93.30
71567;BME280;59403;47.456;19.120;2023-08-01T05:45:07;99581.63;;;18.56;93.20
71567;BME280;59403;47.456;19.120;2023-08-01T05:47:34;99574.78;;;18.60;94.30
71567;BME280;59403;47.456;19.120;2023-08-01T05:50:02;99578.19;;;18.67;93.19
71567;BME280;59403;47.456;19.120;2023-08-01T05:52:29;99571.09;;;18.73;93.00
71567;BME280;59403;47.456;19.120;2023-08-01T05:54:56;99573.66;;;18.79;94.05
71567;BME280;59403;47.456;19.120;2023-08-01T05:57:25;99573.00;;;18.95;92.76
71567;BME280;59403;47.456;19.120;2023-08-01T05:59:52;99573.13;;;19.23;91.54
71567;BME280;59403;47.456;19.120;2023-08-01T06:02:19;99571.16;;;19.65;89.50
71567;BME280;59403;47.456;19.120;2023-08-01T06:04:46;99572.31;;;19.92;87.91
71567;BME280;59403;47.456;19.120;2023-08-01T06:07:13;99568.56;;;19.93;88.42
71567;BME280;59403;47.456;19.120;2023-08-01T06:09:39;99570.91;;;20.01;87.19
71567;BME280;59403;47.456;19.120;2023-08-01T06:12:07;99579.63;;;20.20;86.98
71567;BME280;59403;47.456;19.120;2023-08-01T06:14:35;99568.56;;;20.33;88.47
71567;BME280;59403;47.456;19.120;2023-08-01T06:17:02;99576.97;;;20.48;86.43
71567;BME280;59403;47.456;19.120;2023-08-01T06:19:29;99567.66;;;20.56;86.17
71567;BME280;59403;47.456;19.120;2023-08-01T06:21:56;99573.47;;;20.64;86.09
71567;BME280;59403;47.456;19.120;2023-08-01T06:24:23;99572.75;;;20.69;85.71
71567;BME280;59403;47.456;19.120;2023-08-01T06:26:50;99573.91;;;20.89;84.68
71567;BME280;59403;47.456;19.120;2023-08-01T06:29:17;99568.03;;;21.04;84.84
71567;BME280;59403;47.456;19.120;2023-08-01T06:31:45;99566.37;;;21.19;83.33
71567;BME280;59403;47.456;19.120;2023-08-01T06:34:12;99565.69;;;21.46;82.40
71567;BME280;59403;47.456;19.120;2023-08-01T06:36:39;99563.84;;;21.68;82.05
71567;BME280;59403;47.456;19.120;2023-08-01T06:39:05;99569.97;;;21.80;82.16
71567;BME280;59403;47.456;19.120;2023-08-01T06:41:32;99575.75;;;21.88;81.20
71567;BME280;59403;47.456;19.120;2023-08-01T06:43:59;99566.53;;;22.06;80.27
71567;BME280;59403;47.456;19.120;2023-08-01T06:46:26;99566.97;;;22.19;80.54
71567;BME280;59403;47.456;19.120;2023-08-01T06:48:55;99557.06;;;22.25;80.09
71567;BME280;59403;47.456;19.120;2023-08-01T06:51:22;99555.34;;;22.40;79.11
71567;BME280;59403;47.456;19.120;2023-08-01T06:53:49;99559.03;;;22.56;78.18
71567;BME280;59403;47.456;19.120;2023-08-01T06:56:16;99558.06;;;22.67;77.68
71567;BME280;59403;47.456;19.120;2023-08-01T06:58:43;99553.03;;;22.76;76.67
71567;BME280;59403;47.456;19.120;2023-08-01T07:01:10;99547.34;;;23.04;75.00
71567;BME280;59403;47.456;19.120;2023-08-01T07:03:37;99550.13;;;23.19;74.98
71567;BME280;59403;47.456;19.120;2023-08-01T07:06:05;99547.31;;;23.35;74.22
71567;BME280;59403;47.456;19.120;2023-08-01T07:08:32;99555.56;;;23.55;73.97
71567;BME280;59403;47.456;19.120;2023-08-01T07:10:59;99542.28;;;23.49;72.85
71567;BME280;59403;47.456;19.120;2023-08-01T07:13:26;99541.50;;;23.58;73.35
71567;BME280;59403;47.456;19.120;2023-08-01T07:15:53;99540.81;;;23.78;73.13
71567;BME280;59403;47.456;19.120;2023-08-01T07:18:21;99544.63;;;23.87;71.26
71567;BME280;59403;47.456;19.120;2023-08-01T07:20:48;99541.66;;;23.89;71.67
71567;BME280;59403;47.456;19.120;2023-08-01T07:23:16;99536.09;;;24.10;73.22
71567;BME280;59403;47.456;19.120;2023-08-01T07:25:43;99528.81;;;24.21;70.24
71567;BME280;59403;47.456;19.120;2023-08-01T07:28:09;99536.72;;;24.42;69.03
71567;BME280;59403;47.456;19.120;2023-08-01T07:30:36;99524.81;;;24.48;68.75
71567;BME280;59403;47.456;19.120;2023-08-01T07:33:03;99528.87;;;24.51;69.65
71567;BME280;59403;47.456;19.120;2023-08-01T07:35:30;99531.88;;;24.44;68.78
71567;BME280;59403;47.456;19.120;2023-08-01T07:37:57;99533.56;;;24.86;68.95
71567;BME280;59403;47.456;19.120;2023-08-01T07:40:25;99535.72;;;24.99;67.21
71567;BME280;59403;47.456;19.120;2023-08-01T07:42:52;99529.50;;;24.98;66.78
71567;BME280;59403;47.456;19.120;2023-08-01T07:45:19;99528.66;;;25.18;65.92
71567;BME280;59403;47.456;19.120;2023-08-01T07:47:47;99522.44;;;25.12;66.63
71567;BME280;59403;47.456;19.120;2023-08-01T07:50:14;99518.09;;;25.06;65.38
71567;BME280;59403;47.456;19.120;2023-08-01T07:52:41;99514.56;;;25.11;65.64
71567;BME280;59403;47.456;19.120;2023-08-01T07:55:08;99521.09;;;25.10;64.59
71567;BME280;59403;47.456;19.120;2023-08-01T07:57:37;99515.91;;;25.23;63.92
71567;BME280;59403;47.456;19.120;2023-08-01T08:00:05;99519.66;;;25.62;62.75
71567;BME280;59403;47.456;19.120;2023-08-01T08:02:32;99518.88;;;25.27;62.35
71567;BME280;59403;47.456;19.120;2023-08-01T08:04:59;99513.72;;;25.35;62.09
71567;BME280;59403;47.456;19.120;2023-08-01T08:07:26;99504.00;;;25.39;63.98
71567;BME280;59403;47.456;19.120;2023-08-01T08:09:53;99508.25;;;25.65;61.86
71567;BME280;59403;47.456;19.120;2023-08-01T08:12:20;99502.84;;;25.60;61.19
71567;BME280;59403;47.456;19.120;2023-08-01T08:14:49;99505.41;;;26.01;60.40
71567;BME280;59403;47.456;19.120;2023-08-01T08:17:15;99505.34;;;26.16;59.65
71567;BME280;59403;47.456;19.120;2023-08-01T08:19:43;99497.84;;;25.88;59.29
71567;BME280;59403;47.456;19.120;2023-08-01T08:22:10;99501.16;;;25.79;58.95
71567;BME280;59403;47.456;19.120;2023-08-01T08:24:37;99499.50;;;25.84;59.04
71567;BME280;59403;47.456;19.120;2023-08-01T08:27:04;99501.22;;;25.64;60.17
71567;BME280;59403;47.456;19.120;2023-08-01T08:29:32;99494.44;;;25.57;61.77
71567;BME280;59403;47.456;19.120;2023-08-01T08:32:00;99493.94;;;25.45;62.56
71567;BME280;59403;47.456;19.120;2023-08-01T08:34:27;99493.09;;;25.49;61.60
71567;BME280;59403;47.456;19.120;2023-08-01T08:36:54;99494.22;;;25.43;61.51
71567;BME280;59403;47.456;19.120;2023-08-01T08:39:29;99490.09;;;25.56;59.43
71567;BME280;59403;47.456;19.120;2023-08-01T08:41:57;99492.47;;;25.77;59.34
71567;BME280;59403;47.456;19.120;2023-08-01T08:44:24;99479.62;;;26.03;58.65
71567;BME280;59403;47.456;19.120;2023-08-01T08:46:52;99488.19;;;26.25;56.93
71567;BME280;59403;47.456;19.120;2023-08-01T08:49:21;99492.50;;;26.31;57.49
71567;BME280;59403;47.456;19.120;2023-08-01T08:51:48;99482.47;;;26.65;56.82
71567;BME280;59403;47.456;19.120;2023-08-01T08:54:16;99484.47;;;26.55;55.87
71567;BME280;59403;47.456;19.120;2023-08-01T08:56:43;99485.78;;;26.57;56.01
71567;BME280;59403;47.456;19.120;2023-08-01T08:59:11;99482.13;;;27.06;54.58
71567;BME280;59403;47.456;19.120;2023-08-01T09:01:38;99479.84;;;27.46;53.70
71567;BME280;59403;47.456;19.120;2023-08-01T09:04:06;99470.22;;;27.77;52.82
71567;BME280;59403;47.456;19.120;2023-08-01T09:06:40;99472.34;;;27.80;53.31
71567;BME280;59403;47.456;19.120;2023-08-01T09:09:12;99479.50;;;27.53;52.21
71567;BME280;59403;47.456;19.120;2023-08-01T09:11:42;99455.38;;;27.46;52.23
71567;BME280;59403;47.456;19.120;2023-08-01T09:14:10;99453.44;;;27.70;53.43
71567;BME280;59403;47.456;19.120;2023-08-01T09:16:39;99460.72;;;27.75;51.69
71567;BME280;59403;47.456;19.120;2023-08-01T09:19:06;99456.88;;;27.57;51.44
71567;BME280;59403;47.456;19.120;2023-08-01T09:21:35;99452.94;;;27.87;51.22
71567;BME280;59403;47.456;19.120;2023-08-01T09:24:11;99435.97;;;27.76;50.79
71567;BME280;59403;47.456;19.120;2023-08-01T09:26:39;99438.31;;;27.83;49.60
71567;BME280;59403;47.456;19.120;2023-08-01T09:29:06;99424.16;;;27.62;49.59
71567;BME280;59403;47.456;19.120;2023-08-01T09:31:34;99424.88;;;28.10;47.85
71567;BME280;59403;47.456;19.120;2023-08-01T09:34:03;99422.09;;;28.34;47.47
71567;BME280;59403;47.456;19.120;2023-08-01T09:36:31;99423.38;;;28.55;48.26
71567;BME280;59403;47.456;19.120;2023-08-01T09:38:59;99410.41;;;28.65;48.42
71567;BME280;59403;47.456;19.120;2023-08-01T09:41:27;99413.97;;;28.79;47.86
71567;BME280;59403;47.456;19.120;2023-08-01T09:43:55;99407.03;;;28.87;47.96
71567;BME280;59403;47.456;19.120;2023-08-01T09:46:22;99398.53;;;29.21;47.15
71567;BME280;59403;47.456;19.120;2023-08-01T09:48:49;99397.28;;;29.40;48.36
71567;BME280;59403;47.456;19.120;2023-08-01T09:51:17;99410.22;;;29.75;44.95
71567;BME280;59403;47.456;19.120;2023-08-01T09:53:49;99395.72;;;29.07;47.10
71567;BME280;59403;47.456;19.120;2023-08-01T09:56:21;99394.94;;;28.61;45.90
71567;BME280;59403;47.456;19.120;2023-08-01T09:58:49;99396.34;;;28.08;47.86
71567;BME280;59403;47.456;19.120;2023-08-01T10:01:24;99389.63;;;28.37;45.91
71567;BME280;59403;47.456;19.120;2023-08-01T10:03:53;99394.13;;;28.10;45.25
71567;BME280;59403;47.456;19.120;2023-08-01T10:06:24;99387.59;;;28.43;45.80
71567;BME280;59403;47.456;19.120;2023-08-01T10:08:52;99384.47;;;28.68;46.97
71567;BME280;59403;47.456;19.120;2023-08-01T10:11:22;99377.94;;;28.82;46.31
71567;BME280;59403;47.456;19.120;2023-08-01T10:13:50;99385.94;;;28.92;46.67
71567;BME280;59403;47.456;19.120;2023-08-01T10:16:16;99371.81;;;28.58;47.07
71567;BME280;59403;47.456;19.120;2023-08-01T10:18:43;99362.22;;;29.34;45.82
71567;BME280;59403;47.456;19.120;2023-08-01T10:21:13;99372.03;;;29.48;46.68
71567;BME280;59403;47.456;19.120;2023-08-01T10:23:41;99363.72;;;29.53;45.74
71567;BME280;59403;47.456;19.120;2023-08-01T10:26:10;99358.28;;;29.26;45.42
71567;BME280;59403;47.456;19.120;2023-08-01T10:28:40;99347.28;;;29.31;44.04
71567;BME280;59403;47.456;19.120;2023-08-01T10:31:12;99347.63;;;29.65;43.95
71567;BME280;59403;47.456;19.120;2023-08-01T10:33:40;99336.44;;;29.53;44.84
71567;BME280;59403;47.456;19.120;2023-08-01T10:36:17;99342.41;;;29.91;45.16
71567;BME280;59403;47.456;19.120;2023-08-01T10:38:48;99325.13;;;30.18;43.52
71567;BME280;59403;47.456;19.120;2023-08-01T10:41:29;99326.91;;;30.44;42.49
71567;BME280;59403;47.456;19.120;2023-08-01T10:44:09;99320.13;;;29.97;41.96
71567;BME280;59403;47.456;19.120;2023-08-01T10:46:46;99323.81;;;29.57;43.29
71567;BME280;59403;47.456;19.120;2023-08-01T10:49:13;99311.88;;;29.53;41.44
71567;BME280;59403;47.456;19.120;2023-08-01T10:51:40;99317.56;;;29.43;42.67
71567;BME280;59403;47.456;19.120;2023-08-01T10:54:18;99314.00;;;29.43;41.51
71567;BME280;59403;47.456;19.120;2023-08-01T10:56:45;99299.31;;;29.17;43.30
71567;BME280;59403;47.456;19.120;2023-08-01T10:59:19;99299.37;;;28.84;42.87
71567;BME280;59403;47.456;19.120;2023-08-01T11:01:48;99307.19;;;28.91;42.60
71567;BME280;59403;47.456;19.120;2023-08-01T11:04:16;99296.50;;;29.44;41.14
71567;BME280;59403;47.456;19.120;2023-08-01T11:06:44;99296.75;;;29.07;42.22
71567;BME280;59403;47.456;19.120;2023-08-01T11:09:16;99299.13;;;29.62;42.41
71567;BME280;59403;47.456;19.120;2023-08-01T11:11:43;99279.63;;;29.42;41.59
71567;BME280;59403;47.456;19.120;2023-08-01T11:14:11;99278.84;;;29.41;40.87
71567;BME280;59403;47.456;19.120;2023-08-01T11:16:40;99280.19;;;29.30;41.15
71567;BME280;59403;47.456;19.120;2023-08-01T11:19:18;99272.31;;;29.29;41.35
71567;BME280;59403;47.456;19.120;2023-08-01T11:21:45;99263.34;;;29.01;41.62
71567;BME280;59403;47.456;19.120;2023-08-01T11:24:16;99272.25;;;28.93;41.01
71567;BME280;59403;47.456;19.120;2023-08-01T11:26:43;99274.94;;;28.79;41.03
71567;BME280;59403;47.456;19.120;2023-08-01T11:29:11;99267.94;;;28.46;43.50
71567;BME280;59403;47.456;19.120;2023-08-01T11:31:40;99258.91;;;28.51;42.61
71567;BME280;59403;47.456;19.120;2023-08-01T11:34:08;99254.87;;;28.75;41.65
71567;BME280;59403;47.456;19.120;2023-08-01T11:36:36;99254.94;;;28.57;39.95
71567;BME280;59403;47.456;19.120;2023-08-01T11:39:04;99256.97;;;28.51;40.02
71567;BME280;59403;47.456;19.120;2023-08-01T11:41:31;99251.31;;;28.48;39.63
71567;BME280;59403;47.456;19.120;2023-08-01T11:44:02;99252.22;;;28.57;40.23
71567;BME280;59403;47.456;19.120;2023-08-01T11:46:34;99242.97;;;28.58;40.30
71567;BME280;59403;47.456;19.120;2023-08-01T11:49:03;99237.00;;;28.69;39.89
71567;BME280;59403;47.456;19.120;2023-08-01T11:51:30;99228.81;;;28.83;40.07
71567;BME280;59403;47.456;19.120;2023-08-01T11:54:00;99225.50;;;28.86;39.26
71567;BME280;59403;47.456;19.120;2023-08-01T11:56:28;99212.53;;;28.91;41.31
71567;BME280;59403;47.456;19.120;2023-08-01T11:58:55;99219.25;;;28.72;40.74
71567;BME280;59403;47.456;19.120;2023-08-01T12:01:22;99215.37;;;28.73;40.79
71567;BME280;59403;47.456;19.120;2023-08-01T12:03:51;99205.19;;;28.51;40.09
71567;BME280;59403;47.456;19.120;2023-08-01T12:06:20;99203.06;;;28.62;39.04
71567;BME280;59403;47.456;19.120;2023-08-01T12:08:51;99194.38;;;28.46;41.10
71567;BME280;59403;47.456;19.120;2023-08-01T12:11:21;99197.91;;;28.47;40.45
71567;BME280;59403;47.456;19.120;2023-08-01T12:14:00;99187.81;;;28.47;40.38
71567;BME280;59403;47.456;19.120;2023-08-01T12:16:27;99178.44;;;28.53;40.96
71567;BME280;59403;47.456;19.120;2023-08-01T12:18:55;99181.19;;;28.67;39.96
71567;BME280;59403;47.456;19.120;2023-08-01T12:21:26;99174.81;;;28.71;39.33
71567;BME280;59403;47.456;19.120;2023-08-01T12:23:53;99176.53;;;28.54;39.72
71567;BME280;59403;47.456;19.120;2023-08-01T12:26:20;99166.88;;;28.61;39.72
71567;BME280;59403;47.456;19.120;2023-08-01T12:28:46;99159.88;;;28.55;39.43
71567;BME280;59403;47.456;19.120;2023-08-01T12:31:16;99150.97;;;28.50;39.37
71567;BME280;59403;47.456;19.120;2023-08-01T12:33:44;99144.22;;;28.47;41.09
71567;BME280;59403;47.456;19.120;2023-08-01T12:36:12;99151.19;;;28.40;40.34
71567;BME280;59403;47.456;19.120;2023-08-01T12:38:40;99165.94;;;28.39;39.76
71567;BME280;59403;47.456;19.120;2023-08-01T12:41:07;99148.69;;;28.30;39.42
71567;BME280;59403;47.456;19.120;2023-08-01T12:43:34;99143.22;;;28.30;40.10
71567;BME280;59403;47.456;19.120;2023-08-01T12:46:01;99135.47;;;28.37;39.84
71567;BME280;59403;47.456;19.120;2023-08-01T12:48:28;99134.22;;;28.43;40.51
71567;BME280;59403;47.456;19.120;2023-08-01T12:50:56;99132.94;;;28.40;38.53
71567;BME280;59403;47.456;19.120;2023-08-01T12:53:23;99137.47;;;28.58;39.43
71567;BME280;59403;47.456;19.120;2023-08-01T12:55:52;99139.47;;;28.80;38.76